Time;durP1;ratioP1;P1;durP2;ratioP2;P2;SDS_P1;SDS_P2;PMS_P1;PMS_P2;Temp;Humidity;BMP_temperature;BMP_pressure;BME280_temperature;BME280_humidity;BME280_pressure;Samples;Min_cycle;Max_cycle;Signal;HPM_P1;HPM_P2
2023/10/21 00:17:12;;;;;;;8.50;5.87;;;17.60;98.20;;;;;;4546948;19;19989;31
2023/10/21 00:18:48;;;;;;;7.55;5.55;;;17.60;98.40;;;;;;4593225;19;20025;-73
2023/10/21 00:20:23;;;;;;;8.40;5.10;;;17.60;98.30;;;;;;4592530;19;20449;-73
2023/10/21 00:21:57;;;;;;;5.85;4.22;;;17.60;98.30;;;;;;4593011;19;20007;-73
2023/10/21 00:23:32;;;;;;;5.60;3.85;;;17.60;98.30;;;;;;4592713;19;20363;-73
2023/10/21 00:25:06;;;;;;;9.88;6.35;;;17.60;98.30;;;;;;4592538;19;20015;-73
2023/10/21 00:26:47;;;;;;;5.18;3.90;;;17.60;98.50;;;;;;4592145;19;20326;-73
2023/10/21 00:28:22;;;;;;;;;;;17.60;98.50;;;;;;4591336;19;20014;-73
2023/10/21 00:29:57;;;;;;;9.68;6.78;;;17.60;98.50;;;;;;4592544;19;19915;-73
2023/10/21 00:31:31;;;;;;;14.27;9.43;;;17.60;98.50;;;;;;4591922;19;20006;-73
2023/10/21 00:33:06;;;;;;;8.23;5.97;;;17.60;98.50;;;;;;4592585;19;20010;-73
2023/10/21 00:34:40;;;;;;;9.18;5.80;;;17.60;98.50;;;;;;4592825;19;20010;-73
2023/10/21 00:36:14;;;;;;;8.13;5.15;;;17.60;98.60;;;;;;4591389;19;20009;-73
2023/10/21 00:37:49;;;;;;;6.10;4.18;;;17.50;98.60;;;;;;4590520;19;20007;-73
2023/10/21 00:39:23;;;;;;;5.82;4.50;;;17.60;98.60;;;;;;4591086;19;20082;-73
2023/10/21 00:40:57;;;;;;;5.45;3.83;;;17.50;98.70;;;;;;4592084;19;20002;-73
2023/10/21 00:42:33;;;;;;;5.90;3.40;;;17.50;98.70;;;;;;4591429;19;20439;-73
2023/10/21 00:44:08;;;;;;;5.18;3.40;;;17.50;98.70;;;;;;4592304;19;20013;-73
2023/10/21 00:45:42;;;;;;;5.80;3.17;;;17.60;98.70;;;;;;4592335;19;20064;-73
2023/10/21 00:47:18;;;;;;;4.32;3.10;;;17.60;98.70;;;;;;4590777;19;20006;-73
2023/10/21 00:48:54;;;;;;;5.22;2.83;;;17.60;98.70;;;;;;4591998;19;20003;-73
2023/10/21 00:50:29;;;;;;;4.93;2.90;;;17.60;98.80;;;;;;4590688;19;20016;-73
2023/10/21 00:52:05;;;;;;;4.60;3.45;;;17.60;98.80;;;;;;4590985;19;20006;-73
2023/10/21 00:53:40;;;;;;;4.75;3.33;;;17.60;98.80;;;;;;4591859;19;20310;-73
2023/10/21 00:55:14;;;;;;;4.43;2.78;;;17.60;98.80;;;;;;4592217;19;20003;-73
2023/10/21 00:56:50;;;;;;;4.57;2.97;;;17.60;98.80;;;;;;4591205;19;20308;-73
2023/10/21 00:58:25;;;;;;;4.40;2.50;;;17.60;98.80;;;;;;4591118;19;20317;-73
2023/10/21 01:00:00;;;;;;;3.60;2.58;;;17.60;98.80;;;;;;4591094;19;20013;-73
2023/10/21 01:01:36;;;;;;;4.68;3.20;;;17.50;98.80;;;;;;4591852;19;20007;-73
2023/10/21 01:03:11;;;;;;;4.43;2.63;;;17.60;98.80;;;;;;4592291;19;20003;-73
2023/10/21 01:04:45;;;;;;;5.28;2.40;;;17.50;98.90;;;;;;4592314;19;20322;-73
2023/10/21 01:06:20;;;;;;;3.55;2.40;;;17.60;98.90;;;;;;4592007;19;20025;-73
2023/10/21 01:08:00;;;;;;;5.65;2.60;;;17.60;99.00;;;;;;4591539;19;20081;-73
2023/10/21 01:09:37;;;;;;;3.42;2.28;;;17.50;98.90;;;;;;4592040;19;20024;-73
2023/10/21 01:11:12;;;;;;;4.05;2.30;;;17.50;99.00;;;;;;4591275;19;20029;-73
2023/10/21 01:12:48;;;;;;;5.88;2.70;;;17.50;99.00;;;;;;4591851;19;20010;-73
2023/10/21 01:14:22;;;;;;;4.55;2.85;;;17.50;99.00;;;;;;4591883;19;19995;-73
2023/10/21 01:15:57;;;;;;;4.25;2.75;;;17.60;99.00;;;;;;4590542;19;20013;-73
2023/10/21 01:17:31;;;;;;;4.38;2.75;;;17.50;99.00;;;;;;4590753;19;20002;-73
2023/10/21 01:19:08;;;;;;;4.88;3.05;;;17.50;99.10;;;;;;4592079;19;20007;-73
2023/10/21 01:20:45;;;;;;;5.30;2.92;;;17.50;99.10;;;;;;4591721;19;20090;-73
2023/10/21 01:22:19;;;;;;;4.53;2.92;;;17.50;99.00;;;;;;4592128;19;20007;-73
2023/10/21 01:23:53;;;;;;;4.90;3.47;;;17.50;99.10;;;;;;4591683;19;20448;-73
2023/10/21 01:25:29;;;;;;;5.40;3.33;;;17.50;99.30;;;;;;4591633;19;20007;-73
2023/10/21 01:27:03;;;;;;;4.88;3.38;;;17.50;99.10;;;;;;4591517;19;20077;-73
2023/10/21 01:28:37;;;;;;;3.97;2.80;;;17.50;99.10;;;;;;4590307;19;20010;-73
2023/10/21 01:30:13;;;;;;;4.22;2.78;;;17.50;99.20;;;;;;4590567;19;20012;-73
2023/10/21 01:31:47;;;;;;;4.00;2.47;;;17.50;99.20;;;;;;4589904;19;20025;-73
2023/10/21 01:33:21;;;;;;;6.00;3.30;;;17.50;99.20;;;;;;4590230;19;20311;-73
2023/10/21 01:34:56;;;;;;;5.05;3.05;;;17.50;99.20;;;;;;4591114;19;20380;-73
2023/10/21 01:36:30;;;;;;;4.25;2.85;;;17.50;99.20;;;;;;4591485;19;20314;-73
2023/10/21 01:38:04;;;;;;;3.88;2.55;;;17.50;99.20;;;;;;4590833;19;20314;-73
2023/10/21 01:39:40;;;;;;;5.65;3.22;;;17.50;99.30;;;;;;4591487;19;20010;-73
2023/10/21 01:41:14;;;;;;;5.90;2.80;;;17.50;99.30;;;;;;4591915;19;20330;-73
2023/10/21 01:42:48;;;;;;;4.82;3.30;;;17.50;99.30;;;;;;4591371;19;20010;-73
2023/10/21 01:44:23;;;;;;;5.20;3.22;;;17.50;99.30;;;;;;4590552;19;20433;-73
2023/10/21 01:45:58;;;;;;;6.25;3.35;;;17.50;99.30;;;;;;4590287;19;20069;-73
2023/10/21 01:47:33;;;;;;;6.15;3.50;;;17.50;99.30;;;;;;4590511;19;20003;-73
2023/10/21 01:49:09;;;;;;;4.45;3.03;;;17.50;99.40;;;;;;4594303;19;20090;-73
2023/10/21 01:50:43;;;;;;;4.03;2.55;;;17.50;99.40;;;;;;4595711;19;19995;-73
2023/10/21 01:52:17;;;;;;;5.18;3.28;;;17.50;99.40;;;;;;4595871;19;20002;-73
2023/10/21 01:53:52;;;;;;;4.15;2.70;;;17.50;99.40;;;;;;4596194;19;20007;-73
2023/10/21 01:55:27;;;;;;;7.28;2.88;;;17.50;99.40;;;;;;4596079;19;20299;-73
2023/10/21 01:57:02;;;;;;;6.78;3.28;;;17.50;99.40;;;;;;4596073;19;20002;-73
2023/10/21 01:58:39;;;;;;;5.40;3.00;;;17.50;99.50;;;;;;4594019;19;20091;-73
2023/10/21 02:00:18;;;;;;;5.10;2.45;;;17.50;99.50;;;;;;4595753;19;20021;-73
2023/10/21 02:01:53;;;;;;;3.75;2.63;;;17.50;99.50;;;;;;4595713;19;20011;-73
2023/10/21 02:03:29;;;;;;;4.20;2.83;;;17.50;99.50;;;;;;4595671;19;20007;-73
2023/10/21 02:05:04;;;;;;;4.88;3.30;;;17.50;99.50;;;;;;4595852;19;20445;-73
2023/10/21 02:06:39;;;;;;;5.80;3.13;;;17.50;99.50;;;;;;4595617;19;20018;-73
2023/10/21 02:08:15;;;;;;;6.40;3.60;;;17.50;99.50;;;;;;4594542;19;20365;-73
2023/10/21 02:09:50;;;;;;;4.80;3.15;;;17.50;99.60;;;;;;4595529;19;20007;-73
2023/10/21 02:11:26;;;;;;;4.32;2.97;;;17.50;99.60;;;;;;4594317;19;20002;-73
2023/10/21 02:13:01;;;;;;;6.07;3.10;;;17.50;99.60;;;;;;4595837;19;20007;-73
2023/10/21 02:14:35;;;;;;;4.03;2.63;;;17.50;99.60;;;;;;4595675;19;20040;-73
2023/10/21 02:16:14;;;;;;;4.97;2.90;;;17.50;99.60;;;;;;4595615;19;20019;-73
2023/10/21 02:17:50;;;;;;;4.43;3.10;;;17.50;99.70;;;;;;4594239;19;20038;-73
2023/10/21 02:19:24;;;;;;;4.72;3.15;;;17.50;99.70;;;;;;4595601;19;20009;-73
2023/10/21 02:20:59;;;;;;;5.65;2.90;;;17.50;99.70;;;;;;4595579;19;20003;-73
2023/10/21 02:22:35;;;;;;;4.93;3.10;;;17.50;99.70;;;;;;4595614;19;20006;-73
2023/10/21 02:24:09;;;;;;;4.68;3.22;;;17.50;99.70;;;;;;4595120;19;20311;-73
2023/10/21 02:25:43;;;;;;;5.88;3.13;;;17.50;99.70;;;;;;4595221;19;20002;-73
2023/10/21 02:27:18;;;;;;;6.80;3.67;;;17.50;99.70;;;;;;4595106;19;20006;-73
2023/10/21 02:28:53;;;;;;;4.35;2.97;;;17.50;99.70;;;;;;4595111;19;20003;-73
2023/10/21 02:30:27;;;;;;;5.60;3.53;;;17.50;99.80;;;;;;4594830;19;20007;-73
2023/10/21 02:32:03;;;;;;;6.00;4.50;;;17.50;99.80;;;;;;4595418;19;20017;-73
2023/10/21 02:33:37;;;;;;;6.05;4.22;;;17.50;99.80;;;;;;4595221;19;20013;-73
2023/10/21 02:35:11;;;;;;;8.30;5.22;;;17.50;99.80;;;;;;4595060;19;20087;-73
2023/10/21 02:36:46;;;;;;;6.75;4.50;;;17.50;99.80;;;;;;4595042;19;20485;-73
2023/10/21 02:38:21;;;;;;;6.47;4.25;;;17.50;99.80;;;;;;4592292;19;20002;-73
2023/10/21 02:39:58;;;;;;;6.63;4.40;;;17.50;99.80;;;;;;4594598;19;20010;-73
2023/10/21 02:41:33;;;;;;;7.63;4.70;;;17.50;99.90;;;;;;4594926;19;20006;-73
2023/10/21 02:43:07;;;;;;;8.75;4.30;;;17.50;99.90;;;;;;4594817;19;19998;-73
2023/10/21 02:44:42;;;;;;;6.43;4.63;;;17.50;99.90;;;;;;4595121;19;20019;-73
2023/10/21 02:46:19;;;;;;;7.30;4.15;;;17.50;99.90;;;;;;4593475;19;20007;-73
2023/10/21 02:47:52;;;;;;;6.78;4.47;;;17.50;99.90;;;;;;4593553;19;19999;-73
2023/10/21 02:49:26;;;;;;;8.27;6.07;;;17.50;99.90;;;;;;4594948;19;20009;-73
2023/10/21 02:51:18;;;;;;;7.38;5.00;;;17.50;99.90;;;;;;4594348;19;20006;-73
2023/10/21 02:52:52;;;;;;;9.02;6.28;;;17.50;99.90;;;;;;4593420;19;20017;-73
2023/10/21 02:54:26;;;;;;;10.75;7.45;;;17.50;99.90;;;;;;4594195;19;20034;-73
2023/10/21 02:56:05;;;;;;;8.30;5.53;;;17.50;99.90;;;;;;4594781;19;20007;-73
2023/10/21 02:57:39;;;;;;;11.45;7.82;;;17.50;99.90;;;;;;4594015;19;20011;-73
2023/10/21 02:59:13;;;;;;;10.48;7.28;;;17.50;99.90;;;;;;4593285;19;20003;-73
2023/10/21 03:00:49;;;;;;;11.27;6.50;;;17.50;99.90;;;;;;4595030;19;20014;-73
2023/10/21 03:02:23;;;;;;;8.25;5.95;;;17.50;99.90;;;;;;4594426;19;20003;-73
2023/10/21 03:03:58;;;;;;;9.73;7.10;;;17.50;99.90;;;;;;4594339;19;20009;-73
2023/10/21 03:05:33;;;;;;;9.05;6.03;;;17.50;99.90;;;;;;4594247;19;20012;-73
2023/10/21 03:07:08;;;;;;;7.65;5.10;;;17.50;99.90;;;;;;4593014;19;20002;-73
2023/10/21 03:08:44;;;;;;;10.82;7.18;;;17.50;99.90;;;;;;4593908;19;20464;-73
2023/10/21 03:10:20;;;;;;;11.40;7.93;;;17.50;99.90;;;;;;4592904;19;20013;-73
2023/10/21 03:11:54;;;;;;;11.23;6.72;;;17.50;99.90;;;;;;4592380;19;20025;-73
2023/10/21 03:13:28;;;;;;;8.30;5.90;;;17.50;99.90;;;;;;4594100;19;20066;-73
2023/10/21 03:15:06;;;;;;;10.55;7.07;;;17.50;99.90;;;;;;4594259;19;20011;-73
2023/10/21 03:16:40;;;;;;;8.88;6.60;;;17.50;99.90;;;;;;4594335;19;20090;-73
2023/10/21 03:18:14;;;;;;;11.40;8.30;;;17.50;99.90;;;;;;4592707;19;20052;-73
2023/10/21 03:19:51;;;;;;;8.32;6.10;;;17.50;99.90;;;;;;4593849;19;20007;-73
2023/10/21 03:21:25;;;;;;;10.43;5.35;;;17.50;99.90;;;;;;4594197;19;20006;-73
2023/10/21 03:22:59;;;;;;;11.73;8.23;;;17.50;99.90;;;;;;4593533;19;20027;-73
2023/10/21 03:24:36;;;;;;;11.00;7.00;;;17.50;99.90;;;;;;4593517;19;20001;-73
2023/10/21 03:26:11;;;;;;;7.80;6.00;;;17.50;99.90;;;;;;4594358;19;20093;-73
2023/10/21 03:27:46;;;;;;;9.52;6.38;;;17.50;99.90;;;;;;4591950;19;20003;-73
2023/10/21 03:29:21;;;;;;;9.40;6.95;;;17.50;99.90;;;;;;4593593;19;20020;-73
2023/10/21 03:31:03;;;;;;;9.60;6.75;;;17.50;99.90;;;;;;4593124;19;20003;-73
2023/10/21 03:32:38;;;;;;;11.18;7.28;;;17.50;99.90;;;;;;4592391;19;20007;-73
2023/10/21 03:34:13;;;;;;;6.97;5.25;;;17.50;99.90;;;;;;4593565;19;20002;-73
2023/10/21 03:36:01;;;;;;;6.55;4.20;;;17.50;99.90;;;;;;4593204;19;20002;-73
2023/10/21 03:37:35;;;;;;;6.72;5.10;;;17.50;99.90;;;;;;4593323;19;20017;-73
2023/10/21 03:39:10;;;;;;;7.47;5.68;;;17.50;99.90;;;;;;4593217;19;20005;-73
2023/10/21 03:40:45;;;;;;;8.43;5.22;;;17.50;99.90;;;;;;4593452;19;20429;-73
2023/10/21 03:42:20;;;;;;;7.88;6.05;;;17.50;99.90;;;;;;4592913;19;20007;-73
2023/10/21 03:43:55;;;;;;;8.15;6.28;;;17.50;99.90;;;;;;4593300;19;20006;-73
2023/10/21 03:45:29;;;;;;;7.10;5.68;;;17.50;99.90;;;;;;4593441;19;20006;-73
2023/10/21 03:47:03;;;;;;;7.10;4.90;;;17.50;99.90;;;;;;4593226;19;20010;-73
2023/10/21 03:48:41;;;;;;;8.38;4.88;;;17.50;99.90;;;;;;4593492;19;20002;-73
2023/10/21 03:50:15;;;;;;;6.43;5.10;;;17.50;99.90;;;;;;4593271;19;20073;-73
2023/10/21 03:51:50;;;;;;;7.63;5.35;;;17.60;99.90;;;;;;4591476;19;20006;-73
2023/10/21 03:53:27;;;;;;;10.27;8.05;;;17.60;99.90;;;;;;4593323;19;20302;-73
2023/10/21 03:55:02;;;;;;;7.10;4.75;;;17.60;99.90;;;;;;4593535;19;20003;-73
2023/10/21 03:56:36;;;;;;;6.68;4.50;;;17.60;99.90;;;;;;4593567;19;20022;-73
2023/10/21 03:58:12;;;;;;;9.57;6.65;;;17.70;99.90;;;;;;4592641;19;20069;-73
2023/10/21 03:59:46;;;;;;;15.32;9.35;;;17.70;99.90;;;;;;4592179;19;20003;-73
2023/10/21 04:01:21;;;;;;;19.33;11.32;;;17.70;99.90;;;;;;4593138;19;20103;-73
2023/10/21 04:02:58;;;;;;;15.98;9.38;;;17.70;99.90;;;;;;4592222;19;20444;-72
2023/10/21 04:04:31;;;;;;;11.35;7.72;;;17.80;99.90;;;;;;4591741;19;20014;-72
2023/10/21 04:06:08;;;;;;;10.75;7.05;;;17.80;99.90;;;;;;4592821;19;20003;-72
2023/10/21 04:07:44;;;;;;;8.43;5.13;;;17.80;99.90;;;;;;4591260;19;20016;-72
2023/10/21 04:09:18;;;;;;;7.43;5.47;;;17.80;99.90;;;;;;4592716;19;20040;-72
2023/10/21 04:10:53;;;;;;;8.98;5.38;;;17.80;99.90;;;;;;4591307;19;20009;-73
2023/10/21 04:12:29;;;;;;;7.15;4.80;;;17.80;99.90;;;;;;4592450;19;20022;-72
2023/10/21 04:14:05;;;;;;;7.97;5.25;;;17.80;99.90;;;;;;4592967;19;20309;-72
2023/10/21 04:15:39;;;;;;;5.03;3.60;;;17.80;99.90;;;;;;4593230;19;20030;-73
2023/10/21 04:17:15;;;;;;;5.90;4.55;;;17.80;99.90;;;;;;4592712;19;20440;-73
2023/10/21 04:18:49;;;;;;;4.90;3.80;;;17.80;99.90;;;;;;4591484;19;20307;-73
2023/10/21 04:20:23;;;;;;;5.18;3.10;;;17.80;99.90;;;;;;4591450;19;20003;-73
2023/10/21 04:21:59;;;;;;;5.70;3.60;;;17.80;99.90;;;;;;4592476;19;20070;-73
2023/10/21 04:23:34;;;;;;;4.90;3.55;;;17.80;99.90;;;;;;4591489;19;20015;-73
2023/10/21 04:25:09;;;;;;;5.30;2.80;;;17.80;99.90;;;;;;4592344;19;20418;-73
2023/10/21 04:26:46;;;;;;;4.30;2.90;;;17.80;99.90;;;;;;4592696;19;20014;-73
2023/10/21 04:28:20;;;;;;;5.75;2.92;;;17.70;99.90;;;;;;4591990;19;20292;-72
2023/10/21 04:29:54;;;;;;;3.53;2.20;;;17.80;99.90;;;;;;4592880;19;20005;-72
2023/10/21 04:31:35;;;;;;;4.35;2.35;;;17.80;99.90;;;;;;4591742;19;20032;-73
2023/10/21 04:33:08;;;;;;;4.75;2.13;;;17.80;99.90;;;;;;4592588;19;20006;-72
2023/10/21 04:34:43;;;;;;;2.88;2.08;;;17.80;99.90;;;;;;4592582;19;20002;-73
2023/10/21 04:36:21;;;;;;;2.85;2.10;;;17.80;99.90;;;;;;4591180;19;20014;-73
2023/10/21 04:37:56;;;;;;;2.88;2.00;;;17.80;99.90;;;;;;4591533;19;20019;-73
2023/10/21 04:39:30;;;;;;;3.53;2.42;;;17.80;99.90;;;;;;4592744;19;19999;-73
2023/10/21 04:41:07;;;;;;;3.78;2.38;;;17.80;99.90;;;;;;4591174;19;20089;-73
2023/10/21 04:42:42;;;;;;;3.33;2.05;;;17.80;99.90;;;;;;4592476;19;20018;-73
2023/10/21 04:44:18;;;;;;;3.70;2.30;;;17.80;99.90;;;;;;4592380;19;20006;-73
2023/10/21 04:45:53;;;;;;;3.58;2.42;;;17.80;99.90;;;;;;4592593;19;20006;-73
2023/10/21 04:47:28;;;;;;;3.30;2.10;;;17.80;99.90;;;;;;4592220;19;20320;-73
2023/10/21 04:49:02;;;;;;;3.00;2.13;;;17.80;99.90;;;;;;4592370;19;20003;-73
2023/10/21 04:50:37;;;;;;;3.78;2.40;;;17.90;99.90;;;;;;4592394;19;20425;-73
2023/10/21 04:52:17;;;;;;;4.25;2.40;;;18.00;99.90;;;;;;4592282;19;20002;-73
2023/10/21 04:53:53;;;;;;;3.13;1.90;;;18.10;99.90;;;;;;4590993;19;20007;-73
2023/10/21 04:55:30;;;;;;;3.42;2.22;;;18.10;99.90;;;;;;4592005;19;20453;-72
2023/10/21 04:57:06;;;;;;;4.05;2.40;;;18.30;99.90;;;;;;4592432;19;20306;-73
2023/10/21 04:58:40;;;;;;;3.80;2.47;;;18.40;99.90;;;;;;4592336;19;20003;-73
2023/10/21 05:00:16;;;;;;;3.80;2.22;;;18.40;99.90;;;;;;4592222;19;20014;-73
2023/10/21 05:01:51;;;;;;;5.97;3.10;;;18.50;99.90;;;;;;4592103;19;20003;-74
2023/10/21 05:03:26;;;;;;;4.07;2.92;;;18.60;99.80;;;;;;4592374;19;20002;-73
2023/10/21 05:05:02;;;;;;;3.17;2.33;;;18.60;99.80;;;;;;4592158;19;20105;-73
2023/10/21 05:06:36;;;;;;;4.90;2.53;;;18.70;99.70;;;;;;4591447;19;20005;-73
2023/10/21 05:08:10;;;;;;;4.13;2.55;;;18.70;99.70;;;;;;4590859;19;20022;-73
2023/10/21 05:09:45;;;;;;;4.07;2.13;;;18.70;99.70;;;;;;4592133;19;19995;-74
2023/10/21 05:11:20;;;;;;;3.10;2.10;;;18.70;99.60;;;;;;4591276;19;20451;-72
2023/10/21 05:12:55;;;;;;;5.22;2.40;;;18.70;99.60;;;;;;4591884;19;20338;-73
2023/10/21 05:14:30;;;;;;;4.53;2.40;;;18.70;99.60;;;;;;4592030;19;19999;-73
2023/10/21 05:16:03;;;;;;;3.67;2.20;;;18.70;99.60;;;;;;4591910;19;20069;-73
2023/10/21 05:17:38;;;;;;;4.45;2.50;;;18.70;99.60;;;;;;4591222;19;20015;-73
2023/10/21 05:19:13;;;;;;;3.03;2.17;;;18.70;99.70;;;;;;4592180;19;20009;-73
2023/10/21 05:20:47;;;;;;;4.35;2.80;;;18.70;99.70;;;;;;4590389;19;20013;-74
2023/10/21 05:22:21;;;;;;;3.88;2.47;;;18.60;99.70;;;;;;4591764;19;20002;-73
2023/10/21 05:23:56;;;;;;;4.05;2.40;;;18.70;99.70;;;;;;4596784;19;20334;-72
2023/10/21 05:25:30;;;;;;;4.72;2.83;;;18.70;99.70;;;;;;4596497;19;20451;-73
2023/10/21 05:27:05;;;;;;;3.78;2.65;;;18.70;99.70;;;;;;4596670;19;20009;-72
2023/10/21 05:28:40;;;;;;;3.72;2.53;;;18.80;99.70;;;;;;4596432;19;20005;-73
2023/10/21 05:30:14;;;;;;;3.38;2.20;;;18.80;99.60;;;;;;4596345;19;19998;-72
2023/10/21 05:31:49;;;;;;;3.50;2.42;;;18.90;99.60;;;;;;4594680;19;20010;-72
2023/10/21 05:33:24;;;;;;;5.00;3.00;;;19.00;99.60;;;;;;4595319;19;20333;-73
2023/10/21 05:34:59;;;;;;;4.57;3.05;;;19.00;99.50;;;;;;4595960;19;20002;-72
2023/10/21 05:36:33;;;;;;;4.20;2.53;;;19.10;99.50;;;;;;4596514;19;20318;-72
2023/10/21 05:38:09;;;;;;;5.30;3.70;;;19.10;99.40;;;;;;4594939;19;20017;-72
2023/10/21 05:39:43;;;;;;;5.30;3.28;;;19.20;99.40;;;;;;4596464;19;20004;-72
2023/10/21 05:41:17;;;;;;;4.20;2.75;;;19.30;99.30;;;;;;4596103;19;20002;-72
2023/10/21 05:42:53;;;;;;;3.50;2.50;;;19.30;99.30;;;;;;4596185;19;20038;-72
2023/10/21 05:44:28;;;;;;;7.15;5.68;;;19.30;99.20;;;;;;4596383;19;20018;-72
2023/10/21 05:46:05;;;;;;;4.13;3.20;;;19.30;99.20;;;;;;4595944;19;20018;-73
2023/10/21 05:47:40;;;;;;;4.55;2.92;;;19.40;99.20;;;;;;4595532;19;20078;-74
2023/10/21 05:49:14;;;;;;;3.47;2.40;;;19.40;99.20;;;;;;4595936;19;20027;-72
2023/10/21 05:50:49;;;;;;;5.35;2.80;;;19.40;99.20;;;;;;4595541;19;20011;-71
2023/10/21 05:52:25;;;;;;;4.07;2.75;;;19.50;99.20;;;;;;4596003;19;20013;-72
2023/10/21 05:54:00;;;;;;;3.63;2.50;;;19.50;99.20;;;;;;4595876;19;20310;-72
2023/10/21 05:55:39;;;;;;;5.22;2.58;;;19.50;99.10;;;;;;4595829;19;20019;-73
2023/10/21 05:57:15;;;;;;;4.28;2.97;;;19.50;99.10;;;;;;4595702;19;20073;-73
2023/10/21 05:58:51;;;;;;;4.93;3.13;;;19.60;99.10;;;;;;4596065;19;20009;-73
2023/10/21 06:00:27;;;;;;;3.90;2.80;;;19.60;99.10;;;;;;4595695;19;20014;-74
2023/10/21 06:02:04;;;;;;;6.40;3.17;;;19.60;99.00;;;;;;4594755;19;20391;-73
2023/10/21 06:03:40;;;;;;;4.15;2.90;;;19.60;99.00;;;;;;4594996;19;20005;-73
2023/10/21 06:05:14;;;;;;;4.38;3.20;;;19.60;99.00;;;;;;4595522;19;20422;-74
2023/10/21 06:06:54;;;;;;;5.07;3.53;;;17.30;99.90;;;;;;4595520;19;20002;-72
2023/10/21 06:08:29;;;;;;;5.35;3.85;;;15.80;99.90;;;;;;4593447;19;20010;-72
2023/10/21 06:10:04;;;;;;;5.72;5.10;;;15.10;99.90;;;;;;4595146;19;20002;-73
2023/10/21 06:11:40;;;;;;;6.30;4.70;;;14.60;99.90;;;;;;4592666;19;20006;-72
2023/10/21 06:13:15;;;;;;;4.95;3.75;;;14.40;99.90;;;;;;4594767;19;20006;-72
2023/10/21 06:14:51;;;;;;;4.63;3.72;;;14.20;99.90;;;;;;4595025;19;20097;-72
2023/10/21 06:16:27;;;;;;;4.97;3.92;;;14.20;99.90;;;;;;4593791;19;20421;-72
2023/10/21 06:18:01;;;;;;;6.47;4.70;;;14.00;99.90;;;;;;4593324;19;20014;-72
2023/10/21 06:19:35;;;;;;;6.63;5.57;;;13.90;99.90;;;;;;4594766;19;20007;-73
2023/10/21 06:21:12;;;;;;;6.80;6.07;;;13.90;99.90;;;;;;4595253;19;20013;-73
2023/10/21 06:22:48;;;;;;;8.90;8.10;;;13.90;99.90;;;;;;4594668;19;20022;-74
2023/10/21 06:24:22;;;;;;;8.93;8.03;;;13.90;99.90;;;;;;4594803;19;20014;-74
2023/10/21 06:25:57;;;;;;;8.48;7.13;;;13.80;99.90;;;;;;4593371;19;20007;-74
2023/10/21 06:27:31;;;;;;;7.67;6.60;;;13.80;99.90;;;;;;4593720;19;20010;-74
2023/10/21 06:29:05;;;;;;;7.33;5.80;;;13.70;99.90;;;;;;4594626;19;19999;-72
2023/10/21 06:30:41;;;;;;;7.23;5.73;;;13.70;99.90;;;;;;4594717;19;20003;-71
2023/10/21 06:32:16;;;;;;;7.23;5.83;;;13.70;99.90;;;;;;4594549;19;20095;-73
2023/10/21 06:33:50;;;;;;;8.80;6.50;;;13.70;99.90;;;;;;4593775;19;20025;-72
2023/10/21 06:35:26;;;;;;;7.57;6.47;;;13.60;99.90;;;;;;4593352;19;20113;-73
2023/10/21 06:37:00;;;;;;;7.63;6.40;;;13.60;99.90;;;;;;4594084;19;20001;-71
2023/10/21 06:38:34;;;;;;;8.63;7.00;;;13.60;99.90;;;;;;4592749;19;20425;-72
2023/10/21 06:40:09;;;;;;;8.37;6.70;;;13.60;99.90;;;;;;4594503;19;20473;-72
2023/10/21 06:41:44;;;;;;;8.67;6.97;;;13.60;99.90;;;;;;4594249;19;20526;-73
2023/10/21 06:43:18;;;;;;;9.70;7.60;;;13.60;99.90;;;;;;4594011;19;20318;-73
2023/10/21 06:44:53;;;;;;;11.40;8.13;;;13.60;99.90;;;;;;4594190;19;20287;-73
2023/10/21 06:46:28;;;;;;;12.87;8.50;;;13.60;99.90;;;;;;4593868;19;20025;-73
2023/10/21 06:48:04;;;;;;;10.53;7.77;;;13.60;99.90;;;;;;4591723;19;20055;-72
2023/10/21 06:49:39;;;;;;;9.20;6.47;;;13.60;99.90;;;;;;4593888;19;20074;-74
2023/10/21 06:51:13;;;;;;;8.60;6.43;;;13.50;99.90;;;;;;4593594;19;20024;-73
2023/10/21 06:52:47;;;;;;;9.87;6.97;;;13.60;99.90;;;;;;4592463;19;20007;-72
2023/10/21 06:54:24;;;;;;;11.43;8.37;;;13.60;99.90;;;;;;4593585;19;20456;-72
2023/10/21 06:55:58;;;;;;;11.13;9.47;;;13.60;99.90;;;;;;4594049;19;20048;-72
2023/10/21 06:57:32;;;;;;;10.20;8.57;;;13.60;99.90;;;;;;4594181;19;20027;-72
2023/10/21 06:59:08;;;;;;;10.27;8.27;;;13.50;99.90;;;;;;4594603;19;19999;-73
2023/10/21 07:00:42;;;;;;;10.77;8.30;;;13.50;99.90;;;;;;4594320;19;20092;-72
2023/10/21 07:02:17;;;;;;;12.17;8.60;;;13.50;99.90;;;;;;4594599;19;20007;-73
2023/10/21 07:03:53;;;;;;;11.07;8.23;;;13.50;99.90;;;;;;4594426;19;20014;-73
2023/10/21 07:05:29;;;;;;;12.80;8.57;;;13.50;99.90;;;;;;4594189;19;20011;-74
2023/10/21 07:07:02;;;;;;;10.70;8.77;;;13.50;99.90;;;;;;4594219;19;20334;-74
2023/10/21 07:08:37;;;;;;;11.97;8.40;;;13.50;99.90;;;;;;4594277;19;20006;-78
2023/10/21 07:10:12;;;;;;;8.63;7.23;;;13.50;99.90;;;;;;4594641;19;19998;-75
2023/10/21 07:11:47;;;;;;;8.27;6.57;;;13.50;99.90;;;;;;4593170;19;20418;-76
2023/10/21 07:13:23;;;;;;;9.07;7.50;;;13.50;99.90;;;;;;4594327;19;20001;-75
2023/10/21 07:14:57;;;;;;;8.70;6.77;;;13.50;99.90;;;;;;4594451;19;20002;-74
2023/10/21 07:16:31;;;;;;;8.30;6.90;;;13.50;99.90;;;;;;4594452;19;20016;-74
2023/10/21 07:18:07;;;;;;;8.37;7.30;;;13.50;99.90;;;;;;4593285;19;20011;-74
2023/10/21 07:19:44;;;;;;;9.20;7.47;;;13.50;99.90;;;;;;4594187;19;20018;-74
2023/10/21 07:21:19;;;;;;;11.83;9.20;;;13.50;99.90;;;;;;4594104;19;20005;-74
2023/10/21 07:22:55;;;;;;;20.10;13.60;;;13.50;99.90;;;;;;4594121;19;20007;-74
2023/10/21 07:24:30;;;;;;;17.90;11.93;;;13.40;99.90;;;;;;4593976;19;19998;-75
2023/10/21 07:26:04;;;;;;;15.67;9.37;;;13.50;99.90;;;;;;4594014;19;19999;-74
2023/10/21 07:27:39;;;;;;;11.20;8.10;;;13.50;99.90;;;;;;4593702;19;20421;-73
2023/10/21 07:29:13;;;;;;;12.33;7.80;;;13.90;99.90;;;;;;4593919;19;19998;-74
2023/10/21 07:30:48;;;;;;;10.73;7.45;;;14.40;99.90;;;;;;4593719;19;20028;-77
2023/10/21 07:32:24;;;;;;;9.63;7.00;;;14.70;99.90;;;;;;4594213;19;20434;-74
2023/10/21 07:33:57;;;;;;;8.40;4.65;;;15.10;99.90;;;;;;4593785;19;20310;-74
2023/10/21 07:35:31;;;;;;;6.15;4.43;;;15.30;99.90;;;;;;4593809;19;20031;-75
2023/10/21 07:37:06;;;;;;;6.50;4.30;;;15.50;99.90;;;;;;4594099;19;20011;-74
2023/10/21 07:38:41;;;;;;;5.13;3.95;;;15.70;99.90;;;;;;4594033;19;19998;-74
2023/10/21 07:40:16;;;;;;;5.68;3.78;;;15.90;99.90;;;;;;4593989;19;20005;-74
2023/10/21 07:41:51;;;;;;;6.95;4.75;;;16.10;99.90;;;;;;4593722;19;20010;-75
2023/10/21 07:43:25;;;;;;;5.15;3.80;;;16.20;99.90;;;;;;4593857;19;20004;-74
2023/10/21 07:45:00;;;;;;;6.88;5.07;;;16.30;99.90;;;;;;4593584;19;20006;-74
2023/10/21 07:46:35;;;;;;;7.38;4.85;;;16.40;99.90;;;;;;4592315;19;20014;-74
2023/10/21 07:48:09;;;;;;;7.60;5.20;;;16.50;99.90;;;;;;4592247;19;20006;-74
2023/10/21 07:49:43;;;;;;;7.65;5.57;;;16.50;99.90;;;;;;4592378;19;20018;-74
2023/10/21 07:51:18;;;;;;;9.82;6.25;;;16.60;99.90;;;;;;4592602;19;20017;-79
2023/10/21 07:52:53;;;;;;;7.88;5.68;;;16.70;99.90;;;;;;4593441;19;19998;-72
2023/10/21 07:54:27;;;;;;;8.43;5.72;;;16.70;99.90;;;;;;4593677;19;20003;-73
2023/10/21 07:56:04;;;;;;;9.95;6.28;;;16.80;99.90;;;;;;4592067;19;20006;-72
2023/10/21 07:57:38;;;;;;;8.35;6.03;;;16.90;99.90;;;;;;4592446;19;20078;-71
2023/10/21 07:59:12;;;;;;;6.30;4.50;;;16.90;99.90;;;;;;4593336;19;19998;-69
2023/10/21 08:00:48;;;;;;;7.00;4.70;;;17.00;99.90;;;;;;4592002;19;20006;-70
2023/10/21 08:02:22;;;;;;;6.30;4.68;;;17.00;99.90;;;;;;4592197;19;19998;-74
2023/10/21 08:03:58;;;;;;;5.97;4.50;;;17.00;99.90;;;;;;4592815;19;20020;-75
2023/10/21 08:05:33;;;;;;;7.47;4.97;;;17.10;99.90;;;;;;4592525;19;20033;-76
2023/10/21 08:07:06;;;;;;;6.85;5.32;;;17.10;99.90;;;;;;4592265;19;20010;-70
2023/10/21 08:08:40;;;;;;;6.35;4.57;;;17.20;99.90;;;;;;4593134;19;20330;-70
2023/10/21 08:10:17;;;;;;;7.50;5.03;;;17.20;99.90;;;;;;4591671;19;20010;-72
2023/10/21 08:11:51;;;;;;;6.65;4.80;;;17.20;99.90;;;;;;4590887;19;20003;-72
2023/10/21 08:13:25;;;;;;;6.00;4.60;;;17.20;99.90;;;;;;4592620;19;20444;-73
2023/10/21 08:15:05;;;;;;;8.27;4.70;;;17.30;99.90;;;;;;4592988;19;20015;-72
2023/10/21 08:16:39;;;;;;;7.25;5.00;;;17.30;99.90;;;;;;4591581;19;20013;-72
2023/10/21 08:18:13;;;;;;;8.07;5.20;;;17.40;99.90;;;;;;4591601;19;20465;-72
2023/10/21 08:19:48;;;;;;;8.25;5.60;;;17.40;99.90;;;;;;4592995;19;20002;-72
2023/10/21 08:21:23;;;;;;;9.88;6.03;;;17.40;99.90;;;;;;4593103;19;20003;-72
2023/10/21 08:22:58;;;;;;;9.77;6.50;;;17.40;99.90;;;;;;4593015;19;19999;-72
2023/10/21 08:24:33;;;;;;;8.15;5.60;;;17.40;99.90;;;;;;4593120;19;20018;-72
2023/10/21 08:26:08;;;;;;;11.50;7.75;;;17.40;99.90;;;;;;4592766;19;19998;-72
2023/10/21 08:27:43;;;;;;;21.52;18.73;;;17.40;99.90;;;;;;4592458;19;20006;-73
2023/10/21 08:29:20;;;;;;;25.15;21.42;;;17.50;99.90;;;;;;4593045;19;20006;-72
2023/10/21 08:30:54;;;;;;;24.00;17.30;;;17.50;99.90;;;;;;4592714;19;20062;-72